sensor_id;sensor_type;location;lat;lon;timestamp;temperature;humidity
14188;DHT22;7175;51.978;5.330;2023-03-23T00:01:04;12.40;99.90
14188;DHT22;7175;51.978;5.330;2023-03-23T00:03:31;12.40;99.90
14188;DHT22;7175;51.978;5.330;2023-03-23T00:05:59;12.30;99.90
14188;DHT22;7175;51.978;5.330;2023-03-23T00:08:30;12.40;99.90
14188;DHT22;7175;51.978;5.330;2023-03-23T00:10:57;12.40;99.90
14188;DHT22;7175;51.978;5.330;2023-03-23T00:13:28;12.40;99.90
14188;DHT22;7175;51.978;5.330;2023-03-23T00:15:56;12.40;99.90
14188;DHT22;7175;51.978;5.330;2023-03-23T00:18:25;12.40;99.90
14188;DHT22;7175;51.978;5.330;2023-03-23T00:20:53;12.40;99.90
14188;DHT22;7175;51.978;5.330;2023-03-23T00:23:22;12.40;99.90
14188;DHT22;7175;51.978;5.330;2023-03-23T00:25:52;12.50;99.90
14188;DHT22;7175;51.978;5.330;2023-03-23T00:28:23;12.50;99.90
14188;DHT22;7175;51.978;5.330;2023-03-23T00:30:56;12.50;99.90
14188;DHT22;7175;51.978;5.330;2023-03-23T00:33:27;12.50;99.90
14188;DHT22;7175;51.978;5.330;2023-03-23T00:35:55;12.50;99.90
14188;DHT22;7175;51.978;5.330;2023-03-23T00:38:24;12.50;99.90
14188;DHT22;7175;51.978;5.330;2023-03-23T00:40:51;12.50;99.90
14188;DHT22;7175;51.978;5.330;2023-03-23T00:43:20;12.40;99.90
14188;DHT22;7175;51.978;5.330;2023-03-23T00:45:50;12.50;99.90
14188;DHT22;7175;51.978;5.330;2023-03-23T00:48:19;12.50;99.90
14188;DHT22;7175;51.978;5.330;2023-03-23T00:50:47;12.50;99.90
14188;DHT22;7175;51.978;5.330;2023-03-23T00:53:16;12.40;99.90
14188;DHT22;7175;51.978;5.330;2023-03-23T00:55:44;12.50;99.90
14188;DHT22;7175;51.978;5.330;2023-03-23T00:58:12;12.50;99.90
14188;DHT22;7175;51.978;5.330;2023-03-23T01:00:39;12.40;99.90
14188;DHT22;7175;51.978;5.330;2023-03-23T01:03:08;12.40;99.90
14188;DHT22;7175;51.978;5.330;2023-03-23T01:05:38;12.40;99.90
14188;DHT22;7175;51.978;5.330;2023-03-23T01:08:07;12.40;99.90
14188;DHT22;7175;51.978;5.330;2023-03-23T01:10:34;12.40;99.90
14188;DHT22;7175;51.978;5.330;2023-03-23T01:13:04;12.50;99.90
14188;DHT22;7175;51.978;5.330;2023-03-23T01:15:32;12.40;99.90
14188;DHT22;7175;51.978;5.330;2023-03-23T01:17:59;12.40;99.90
14188;DHT22;7175;51.978;5.330;2023-03-23T01:20:26;12.50;99.90
14188;DHT22;7175;51.978;5.330;2023-03-23T01:22:54;12.50;99.90
14188;DHT22;7175;51.978;5.330;2023-03-23T01:25:28;12.60;99.90
14188;DHT22;7175;51.978;5.330;2023-03-23T01:27:56;12.50;99.90
14188;DHT22;7175;51.978;5.330;2023-03-23T01:30:24;12.50;99.90
14188;DHT22;7175;51.978;5.330;2023-03-23T01:32:52;12.50;99.90
14188;DHT22;7175;51.978;5.330;2023-03-23T01:35:19;12.60;99.90
14188;DHT22;7175;51.978;5.330;2023-03-23T01:37:46;12.60;99.90
14188;DHT22;7175;51.978;5.330;2023-03-23T01:40:14;12.60;99.90
14188;DHT22;7175;51.978;5.330;2023-03-23T01:42:43;12.60;99.90
14188;DHT22;7175;51.978;5.330;2023-03-23T01:45:23;12.60;99.90
14188;DHT22;7175;51.978;5.330;2023-03-23T01:47:59;12.60;99.90
14188;DHT22;7175;51.978;5.330;2023-03-23T01:50:28;12.50;99.90
14188;DHT22;7175;51.978;5.330;2023-03-23T01:52:58;12.50;99.90
14188;DHT22;7175;51.978;5.330;2023-03-23T01:55:26;12.50;99.90
14188;DHT22;7175;51.978;5.330;2023-03-23T01:57:56;12.50;99.90
14188;DHT22;7175;51.978;5.330;2023-03-23T02:00:24;12.50;99.90
14188;DHT22;7175;51.978;5.330;2023-03-23T02:02:53;12.50;99.90
14188;DHT22;7175;51.978;5.330;2023-03-23T02:05:25;12.50;99.90
14188;DHT22;7175;51.978;5.330;2023-03-23T02:07:54;12.50;99.90
14188;DHT22;7175;51.978;5.330;2023-03-23T02:10:24;12.50;99.90
14188;DHT22;7175;51.978;5.330;2023-03-23T02:12:52;12.50;99.90
14188;DHT22;7175;51.978;5.330;2023-03-23T02:15:20;12.50;99.90
14188;DHT22;7175;51.978;5.330;2023-03-23T02:17:53;12.50;99.90
14188;DHT22;7175;51.978;5.330;2023-03-23T02:20:36;12.50;99.90
14188;DHT22;7175;51.978;5.330;2023-03-23T02:23:33;12.50;99.90
14188;DHT22;7175;51.978;5.330;2023-03-23T02:26:37;12.50;99.90
14188;DHT22;7175;51.978;5.330;2023-03-23T02:29:31;12.50;99.90
14188;DHT22;7175;51.978;5.330;2023-03-23T02:32:20;12.50;99.90
14188;DHT22;7175;51.978;5.330;2023-03-23T02:34:53;12.50;99.90
14188;DHT22;7175;51.978;5.330;2023-03-23T02:37:26;12.60;99.90
14188;DHT22;7175;51.978;5.330;2023-03-23T02:39:58;12.60;99.90
14188;DHT22;7175;51.978;5.330;2023-03-23T02:42:33;12.70;99.90
14188;DHT22;7175;51.978;5.330;2023-03-23T02:45:04;12.70;99.90
14188;DHT22;7175;51.978;5.330;2023-03-23T02:47:34;12.70;99.90
14188;DHT22;7175;51.978;5.330;2023-03-23T02:50:06;12.70;99.90
14188;DHT22;7175;51.978;5.330;2023-03-23T02:52:35;12.60;99.90
14188;DHT22;7175;51.978;5.330;2023-03-23T02:55:03;12.60;99.90
14188;DHT22;7175;51.978;5.330;2023-03-23T02:57:31;12.70;99.90
14188;DHT22;7175;51.978;5.330;2023-03-23T02:59:58;12.70;99.90
14188;DHT22;7175;51.978;5.330;2023-03-23T03:02:27;12.70;99.90
14188;DHT22;7175;51.978;5.330;2023-03-23T03:05:00;12.70;99.90
14188;DHT22;7175;51.978;5.330;2023-03-23T03:07:35;12.80;99.90
14188;DHT22;7175;51.978;5.330;2023-03-23T03:10:08;12.80;99.90
14188;DHT22;7175;51.978;5.330;2023-03-23T03:12:45;12.80;99.90
14188;DHT22;7175;51.978;5.330;2023-03-23T03:15:23;12.80;99.90
14188;DHT22;7175;51.978;5.330;2023-03-23T03:17:58;12.80;99.90
14188;DHT22;7175;51.978;5.330;2023-03-23T03:20:27;12.70;99.90
14188;DHT22;7175;51.978;5.330;2023-03-23T03:22:57;12.70;99.90
14188;DHT22;7175;51.978;5.330;2023-03-23T03:25:25;12.80;99.90
14188;DHT22;7175;51.978;5.330;2023-03-23T03:27:54;12.80;99.90
14188;DHT22;7175;51.978;5.330;2023-03-23T03:30:25;12.80;99.90
14188;DHT22;7175;51.978;5.330;2023-03-23T03:32:53;12.90;99.90
14188;DHT22;7175;51.978;5.330;2023-03-23T03:35:21;12.80;99.90
14188;DHT22;7175;51.978;5.330;2023-03-23T03:37:49;12.90;99.90
14188;DHT22;7175;51.978;5.330;2023-03-23T03:40:20;12.90;99.90
14188;DHT22;7175;51.978;5.330;2023-03-23T03:42:48;12.90;99.90
14188;DHT22;7175;51.978;5.330;2023-03-23T03:45:17;12.90;99.90
14188;DHT22;7175;51.978;5.330;2023-03-23T03:47:44;13.00;99.90
14188;DHT22;7175;51.978;5.330;2023-03-23T03:50:11;12.90;99.90
14188;DHT22;7175;51.978;5.330;2023-03-23T03:52:39;12.80;99.90
14188;DHT22;7175;51.978;5.330;2023-03-23T03:55:08;12.80;99.90
14188;DHT22;7175;51.978;5.330;2023-03-23T03:57:37;12.90;99.90
14188;DHT22;7175;51.978;5.330;2023-03-23T04:00:07;12.80;99.90
14188;DHT22;7175;51.978;5.330;2023-03-23T04:02:41;12.80;99.90
14188;DHT22;7175;51.978;5.330;2023-03-23T04:05:09;12.80;99.90
14188;DHT22;7175;51.978;5.330;2023-03-23T04:07:37;12.70;99.90
14188;DHT22;7175;51.978;5.330;2023-03-23T04:10:06;12.70;99.90
14188;DHT22;7175;51.978;5.330;2023-03-23T04:12:34;12.80;99.90
14188;DHT22;7175;51.978;5.330;2023-03-23T04:15:03;12.90;99.90
14188;DHT22;7175;51.978;5.330;2023-03-23T04:17:31;12.90;99.90
14188;DHT22;7175;51.978;5.330;2023-03-23T04:19:58;12.90;99.90
14188;DHT22;7175;51.978;5.330;2023-03-23T04:22:25;12.90;99.90
14188;DHT22;7175;51.978;5.330;2023-03-23T04:24:57;12.90;99.90
14188;DHT22;7175;51.978;5.330;2023-03-23T04:27:26;12.90;99.90
14188;DHT22;7175;51.978;5.330;2023-03-23T04:29:55;13.00;99.90
14188;DHT22;7175;51.978;5.330;2023-03-23T04:32:25;13.00;99.90
14188;DHT22;7175;51.978;5.330;2023-03-23T04:34:55;12.90;99.90
14188;DHT22;7175;51.978;5.330;2023-03-23T04:37:23;12.90;99.90
14188;DHT22;7175;51.978;5.330;2023-03-23T04:39:55;13.00;99.90
14188;DHT22;7175;51.978;5.330;2023-03-23T04:42:27;12.90;99.90
14188;DHT22;7175;51.978;5.330;2023-03-23T04:44:55;12.90;99.90
14188;DHT22;7175;51.978;5.330;2023-03-23T04:47:23;12.90;99.90
14188;DHT22;7175;51.978;5.330;2023-03-23T04:49:52;12.90;99.90
14188;DHT22;7175;51.978;5.330;2023-03-23T04:52:19;12.80;99.90
14188;DHT22;7175;51.978;5.330;2023-03-23T04:54:46;12.90;99.90
14188;DHT22;7175;51.978;5.330;2023-03-23T04:57:13;12.90;99.90
14188;DHT22;7175;51.978;5.330;2023-03-23T04:59:41;12.90;99.90
14188;DHT22;7175;51.978;5.330;2023-03-23T05:02:09;12.80;99.90
14188;DHT22;7175;51.978;5.330;2023-03-23T05:04:36;12.90;99.90
14188;DHT22;7175;51.978;5.330;2023-03-23T05:07:05;12.80;99.90
14188;DHT22;7175;51.978;5.330;2023-03-23T05:09:33;12.80;99.90
14188;DHT22;7175;51.978;5.330;2023-03-23T05:12:04;12.70;99.90
14188;DHT22;7175;51.978;5.330;2023-03-23T05:14:32;12.60;99.90
14188;DHT22;7175;51.978;5.330;2023-03-23T05:16:59;12.60;99.90
14188;DHT22;7175;51.978;5.330;2023-03-23T05:19:26;12.50;99.90
14188;DHT22;7175;51.978;5.330;2023-03-23T05:21:54;12.40;99.90
14188;DHT22;7175;51.978;5.330;2023-03-23T05:24:22;12.50;99.90
14188;DHT22;7175;51.978;5.330;2023-03-23T05:26:50;12.50;99.90
14188;DHT22;7175;51.978;5.330;2023-03-23T05:29:18;12.40;99.90
14188;DHT22;7175;51.978;5.330;2023-03-23T05:31:45;12.40;99.90
14188;DHT22;7175;51.978;5.330;2023-03-23T05:34:13;12.40;99.90
14188;DHT22;7175;51.978;5.330;2023-03-23T05:36:42;12.40;99.90
14188;DHT22;7175;51.978;5.330;2023-03-23T05:39:11;12.40;99.90
14188;DHT22;7175;51.978;5.330;2023-03-23T05:41:40;12.40;99.90
14188;DHT22;7175;51.978;5.330;2023-03-23T05:44:07;12.40;99.90
14188;DHT22;7175;51.978;5.330;2023-03-23T05:46:34;12.40;99.90
14188;DHT22;7175;51.978;5.330;2023-03-23T05:49:01;12.40;99.90
14188;DHT22;7175;51.978;5.330;2023-03-23T05:51:28;12.40;99.90
14188;DHT22;7175;51.978;5.330;2023-03-23T05:53:55;12.50;99.90
14188;DHT22;7175;51.978;5.330;2023-03-23T05:56:22;12.50;99.90
14188;DHT22;7175;51.978;5.330;2023-03-23T05:58:51;12.50;99.90
14188;DHT22;7175;51.978;5.330;2023-03-23T06:01:19;12.50;99.90
14188;DHT22;7175;51.978;5.330;2023-03-23T06:03:46;12.50;99.90
14188;DHT22;7175;51.978;5.330;2023-03-23T06:06:16;12.50;99.90
14188;DHT22;7175;51.978;5.330;2023-03-23T06:08:45;12.50;99.90
14188;DHT22;7175;51.978;5.330;2023-03-23T06:11:12;12.70;99.90
14188;DHT22;7175;51.978;5.330;2023-03-23T06:13:40;12.60;99.90
14188;DHT22;7175;51.978;5.330;2023-03-23T06:16:09;12.60;99.90
14188;DHT22;7175;51.978;5.330;2023-03-23T06:18:36;12.60;99.90
14188;DHT22;7175;51.978;5.330;2023-03-23T06:21:06;12.60;99.90
14188;DHT22;7175;51.978;5.330;2023-03-23T06:23:34;12.60;99.90
14188;DHT22;7175;51.978;5.330;2023-03-23T06:26:03;12.60;99.90
14188;DHT22;7175;51.978;5.330;2023-03-23T06:28:31;12.50;99.90
14188;DHT22;7175;51.978;5.330;2023-03-23T06:30:59;12.60;99.90
14188;DHT22;7175;51.978;5.330;2023-03-23T06:33:28;12.60;99.90
14188;DHT22;7175;51.978;5.330;2023-03-23T06:35:56;12.50;99.90
14188;DHT22;7175;51.978;5.330;2023-03-23T06:38:23;12.40;99.90
14188;DHT22;7175;51.978;5.330;2023-03-23T06:40:51;12.40;99.90
14188;DHT22;7175;51.978;5.330;2023-03-23T06:43:19;12.40;99.90
14188;DHT22;7175;51.978;5.330;2023-03-23T06:45:46;12.30;99.90
14188;DHT22;7175;51.978;5.330;2023-03-23T06:48:14;12.30;99.90
14188;DHT22;7175;51.978;5.330;2023-03-23T06:50:44;12.40;99.90
14188;DHT22;7175;51.978;5.330;2023-03-23T06:53:12;12.40;99.90
14188;DHT22;7175;51.978;5.330;2023-03-23T06:55:42;12.40;99.90
14188;DHT22;7175;51.978;5.330;2023-03-23T06:58:10;12.40;99.90
14188;DHT22;7175;51.978;5.330;2023-03-23T07:00:37;12.50;99.90
14188;DHT22;7175;51.978;5.330;2023-03-23T07:03:06;12.50;99.90
14188;DHT22;7175;51.978;5.330;2023-03-23T07:05:34;12.50;99.90
14188;DHT22;7175;51.978;5.330;2023-03-23T07:08:03;12.50;99.90
14188;DHT22;7175;51.978;5.330;2023-03-23T07:10:31;12.60;99.90
14188;DHT22;7175;51.978;5.330;2023-03-23T07:12:59;12.60;99.90
14188;DHT22;7175;51.978;5.330;2023-03-23T07:15:26;12.60;99.90
14188;DHT22;7175;51.978;5.330;2023-03-23T07:17:53;12.60;99.90
14188;DHT22;7175;51.978;5.330;2023-03-23T07:20:21;12.60;99.90
14188;DHT22;7175;51.978;5.330;2023-03-23T07:22:48;12.60;99.90
14188;DHT22;7175;51.978;5.330;2023-03-23T07:25:17;12.50;99.90
14188;DHT22;7175;51.978;5.330;2023-03-23T07:27:45;12.50;99.90
14188;DHT22;7175;51.978;5.330;2023-03-23T07:30:13;12.50;99.90
14188;DHT22;7175;51.978;5.330;2023-03-23T07:32:40;12.50;99.90
14188;DHT22;7175;51.978;5.330;2023-03-23T07:35:08;12.50;99.90
14188;DHT22;7175;51.978;5.330;2023-03-23T07:37:35;12.50;99.90
14188;DHT22;7175;51.978;5.330;2023-03-23T07:40:03;12.50;99.90
14188;DHT22;7175;51.978;5.330;2023-03-23T07:42:41;12.40;99.90
14188;DHT22;7175;51.978;5.330;2023-03-23T07:45:10;12.40;99.90
14188;DHT22;7175;51.978;5.330;2023-03-23T07:47:37;12.40;99.90
14188;DHT22;7175;51.978;5.330;2023-03-23T07:50:05;12.40;99.90
14188;DHT22;7175;51.978;5.330;2023-03-23T07:52:33;12.30;99.90
14188;DHT22;7175;51.978;5.330;2023-03-23T07:55:00;12.30;99.90
14188;DHT22;7175;51.978;5.330;2023-03-23T07:57:28;12.30;99.90
14188;DHT22;7175;51.978;5.330;2023-03-23T07:59:57;12.30;99.90
14188;DHT22;7175;51.978;5.330;2023-03-23T08:02:25;12.20;99.90
14188;DHT22;7175;51.978;5.330;2023-03-23T08:04:53;12.20;99.90
14188;DHT22;7175;51.978;5.330;2023-03-23T08:07:22;12.20;99.90
14188;DHT22;7175;51.978;5.330;2023-03-23T08:09:49;12.20;99.90
14188;DHT22;7175;51.978;5.330;2023-03-23T08:12:16;12.20;99.90
14188;DHT22;7175;51.978;5.330;2023-03-23T08:14:43;12.30;99.90
14188;DHT22;7175;51.978;5.330;2023-03-23T08:17:11;12.30;99.90
14188;DHT22;7175;51.978;5.330;2023-03-23T08:19:38;12.30;99.90
14188;DHT22;7175;51.978;5.330;2023-03-23T08:22:05;12.30;99.90
14188;DHT22;7175;51.978;5.330;2023-03-23T08:24:33;12.30;99.90
14188;DHT22;7175;51.978;5.330;2023-03-23T08:27:00;12.30;99.90
14188;DHT22;7175;51.978;5.330;2023-03-23T08:29:27;12.30;99.90
14188;DHT22;7175;51.978;5.330;2023-03-23T08:31:56;12.30;99.90
14188;DHT22;7175;51.978;5.330;2023-03-23T08:34:25;12.40;99.90
14188;DHT22;7175;51.978;5.330;2023-03-23T08:36:52;12.40;99.90
14188;DHT22;7175;51.978;5.330;2023-03-23T08:39:19;12.30;99.90
14188;DHT22;7175;51.978;5.330;2023-03-23T08:41:48;12.40;99.90
14188;DHT22;7175;51.978;5.330;2023-03-23T08:44:15;12.50;99.90
14188;DHT22;7175;51.978;5.330;2023-03-23T08:46:43;12.60;99.90
14188;DHT22;7175;51.978;5.330;2023-03-23T08:49:10;12.50;99.90
14188;DHT22;7175;51.978;5.330;2023-03-23T08:51:38;12.60;99.90
14188;DHT22;7175;51.978;5.330;2023-03-23T08:54:06;12.60;99.90
14188;DHT22;7175;51.978;5.330;2023-03-23T08:56:33;12.90;99.90
14188;DHT22;7175;51.978;5.330;2023-03-23T08:59:01;13.10;99.90
14188;DHT22;7175;51.978;5.330;2023-03-23T09:01:28;13.00;99.90
14188;DHT22;7175;51.978;5.330;2023-03-23T09:03:55;13.20;99.90
14188;DHT22;7175;51.978;5.330;2023-03-23T09:06:22;13.60;99.90
14188;DHT22;7175;51.978;5.330;2023-03-23T09:08:50;13.50;99.90
14188;DHT22;7175;51.978;5.330;2023-03-23T09:11:17;13.50;99.90
14188;DHT22;7175;51.978;5.330;2023-03-23T09:13:44;13.50;99.90
14188;DHT22;7175;51.978;5.330;2023-03-23T09:16:11;13.50;99.90
14188;DHT22;7175;51.978;5.330;2023-03-23T09:18:38;13.60;99.90
14188;DHT22;7175;51.978;5.330;2023-03-23T09:21:06;13.40;99.90
14188;DHT22;7175;51.978;5.330;2023-03-23T09:23:33;13.40;99.90
14188;DHT22;7175;51.978;5.330;2023-03-23T09:26:03;13.30;99.90
14188;DHT22;7175;51.978;5.330;2023-03-23T09:28:30;13.60;99.90
14188;DHT22;7175;51.978;5.330;2023-03-23T09:30:59;13.90;99.90
14188;DHT22;7175;51.978;5.330;2023-03-23T09:33:26;13.80;99.90
14188;DHT22;7175;51.978;5.330;2023-03-23T09:35:55;14.00;99.90
14188;DHT22;7175;51.978;5.330;2023-03-23T09:38:21;13.90;99.90
14188;DHT22;7175;51.978;5.330;2023-03-23T09:40:51;14.10;99.90
14188;DHT22;7175;51.978;5.330;2023-03-23T09:43:34;14.20;99.90
14188;DHT22;7175;51.978;5.330;2023-03-23T09:46:18;14.00;99.90
14188;DHT22;7175;51.978;5.330;2023-03-23T09:48:51;13.80;99.90
14188;DHT22;7175;51.978;5.330;2023-03-23T09:51:32;14.10;99.90
14188;DHT22;7175;51.978;5.330;2023-03-23T09:54:04;14.00;99.90
14188;DHT22;7175;51.978;5.330;2023-03-23T09:56:33;14.30;99.90
14188;DHT22;7175;51.978;5.330;2023-03-23T09:59:19;14.00;99.90
14188;DHT22;7175;51.978;5.330;2023-03-23T10:01:48;13.90;99.90
14188;DHT22;7175;51.978;5.330;2023-03-23T10:04:25;14.30;99.90
14188;DHT22;7175;51.978;5.330;2023-03-23T10:06:57;14.60;99.90
14188;DHT22;7175;51.978;5.330;2023-03-23T10:09:26;14.30;99.90
14188;DHT22;7175;51.978;5.330;2023-03-23T10:12:02;14.60;99.90
14188;DHT22;7175;51.978;5.330;2023-03-23T10:14:48;14.40;99.90
14188;DHT22;7175;51.978;5.330;2023-03-23T10:17:22;14.50;99.90
14188;DHT22;7175;51.978;5.330;2023-03-23T10:19:53;14.90;99.90
14188;DHT22;7175;51.978;5.330;2023-03-23T10:22:26;14.50;99.90
14188;DHT22;7175;51.978;5.330;2023-03-23T10:24:59;14.20;99.90
14188;DHT22;7175;51.978;5.330;2023-03-23T10:27:33;14.20;99.90
14188;DHT22;7175;51.978;5.330;2023-03-23T10:30:15;14.30;99.90
14188;DHT22;7175;51.978;5.330;2023-03-23T10:32:47;14.50;99.90
14188;DHT22;7175;51.978;5.330;2023-03-23T10:35:19;14.50;99.90
14188;DHT22;7175;51.978;5.330;2023-03-23T10:37:49;14.40;99.90
14188;DHT22;7175;51.978;5.330;2023-03-23T10:40:20;14.30;99.90
14188;DHT22;7175;51.978;5.330;2023-03-23T10:42:50;14.20;99.90
14188;DHT22;7175;51.978;5.330;2023-03-23T10:45:21;14.00;99.90
14188;DHT22;7175;51.978;5.330;2023-03-23T10:47:53;14.10;99.90
14188;DHT22;7175;51.978;5.330;2023-03-23T10:50:24;14.10;99.90
14188;DHT22;7175;51.978;5.330;2023-03-23T10:52:54;14.20;99.90
14188;DHT22;7175;51.978;5.330;2023-03-23T10:55:24;14.70;99.90
14188;DHT22;7175;51.978;5.330;2023-03-23T10:58:04;14.80;99.90
14188;DHT22;7175;51.978;5.330;2023-03-23T11:00:33;15.00;99.90
14188;DHT22;7175;51.978;5.330;2023-03-23T11:03:21;15.40;99.90
14188;DHT22;7175;51.978;5.330;2023-03-23T11:05:52;15.60;99.90
14188;DHT22;7175;51.978;5.330;2023-03-23T11:08:21;15.30;99.90
14188;DHT22;7175;51.978;5.330;2023-03-23T11:10:51;14.90;99.90
14188;DHT22;7175;51.978;5.330;2023-03-23T11:13:20;14.80;99.90
14188;DHT22;7175;51.978;5.330;2023-03-23T11:15:49;15.20;99.90
14188;DHT22;7175;51.978;5.330;2023-03-23T11:18:19;15.70;99.90
14188;DHT22;7175;51.978;5.330;2023-03-23T11:20:49;16.20;99.90
14188;DHT22;7175;51.978;5.330;2023-03-23T11:23:21;16.50;99.90
14188;DHT22;7175;51.978;5.330;2023-03-23T11:25:57;16.40;99.90
14188;DHT22;7175;51.978;5.330;2023-03-23T11:28:31;15.80;99.90
14188;DHT22;7175;51.978;5.330;2023-03-23T11:31:01;15.40;99.90
14188;DHT22;7175;51.978;5.330;2023-03-23T11:33:30;15.30;99.90
14188;DHT22;7175;51.978;5.330;2023-03-23T11:36:02;15.60;99.90
14188;DHT22;7175;51.978;5.330;2023-03-23T11:38:29;15.70;99.90
14188;DHT22;7175;51.978;5.330;2023-03-23T11:40:56;15.80;99.90
14188;DHT22;7175;51.978;5.330;2023-03-23T11:43:25;16.20;99.90
14188;DHT22;7175;51.978;5.330;2023-03-23T11:46:11;16.50;99.90
14188;DHT22;7175;51.978;5.330;2023-03-23T11:48:47;16.30;99.90
14188;DHT22;7175;51.978;5.330;2023-03-23T11:51:19;16.10;99.90
14188;DHT22;7175;51.978;5.330;2023-03-23T11:53:53;15.70;99.90
14188;DHT22;7175;51.978;5.330;2023-03-23T11:56:24;15.40;99.90
14188;DHT22;7175;51.978;5.330;2023-03-23T11:58:53;15.30;99.90
14188;DHT22;7175;51.978;5.330;2023-03-23T12:01:31;15.30;99.90
14188;DHT22;7175;51.978;5.330;2023-03-23T12:04:23;15.30;99.90
14188;DHT22;7175;51.978;5.330;2023-03-23T12:06:57;15.50;99.90
14188;DHT22;7175;51.978;5.330;2023-03-23T12:09:39;15.90;99.90
14188;DHT22;7175;51.978;5.330;2023-03-23T12:12:15;15.80;99.90
14188;DHT22;7175;51.978;5.330;2023-03-23T12:14:49;15.40;99.90
14188;DHT22;7175;51.978;5.330;2023-03-23T12:17:30;15.30;99.90
14188;DHT22;7175;51.978;5.330;2023-03-23T12:20:11;15.30;99.90
14188;DHT22;7175;51.978;5.330;2023-03-23T12:22:48;15.40;99.90
14188;DHT22;7175;51.978;5.330;2023-03-23T12:25:39;15.40;99.90
14188;DHT22;7175;51.978;5.330;2023-03-23T12:28:19;15.30;99.90
14188;DHT22;7175;51.978;5.330;2023-03-23T12:30:51;15.30;99.90
14188;DHT22;7175;51.978;5.330;2023-03-23T12:33:29;15.30;99.90
14188;DHT22;7175;51.978;5.330;2023-03-23T12:36:08;15.40;99.90
14188;DHT22;7175;51.978;5.330;2023-03-23T12:38:48;15.40;99.90
14188;DHT22;7175;51.978;5.330;2023-03-23T12:41:17;15.70;99.90
14188;DHT22;7175;51.978;5.330;2023-03-23T12:43:52;15.80;99.90
14188;DHT22;7175;51.978;5.330;2023-03-23T12:49:21;16.00;99.90
14188;DHT22;7175;51.978;5.330;2023-03-23T12:51:54;16.80;99.90
14188;DHT22;7175;51.978;5.330;2023-03-23T12:54:27;17.30;99.90
14188;DHT22;7175;51.978;5.330;2023-03-23T12:57:02;17.20;99.90
14188;DHT22;7175;51.978;5.330;2023-03-23T12:59:38;17.40;99.90
14188;DHT22;7175;51.978;5.330;2023-03-23T13:02:13;17.50;99.90
14188;DHT22;7175;51.978;5.330;2023-03-23T13:04:46;17.10;99.90
14188;DHT22;7175;51.978;5.330;2023-03-23T13:07:18;17.30;99.90
14188;DHT22;7175;51.978;5.330;2023-03-23T13:09:52;17.60;99.90
14188;DHT22;7175;51.978;5.330;2023-03-23T13:12:21;17.80;99.90
14188;DHT22;7175;51.978;5.330;2023-03-23T13:14:56;18.50;99.90
14188;DHT22;7175;51.978;5.330;2023-03-23T13:17:37;17.80;99.90
14188;DHT22;7175;51.978;5.330;2023-03-23T13:23:33;17.00;99.90
14188;DHT22;7175;51.978;5.330;2023-03-23T13:26:05;16.90;99.90
14188;DHT22;7175;51.978;5.330;2023-03-23T13:28:43;17.20;99.90
14188;DHT22;7175;51.978;5.330;2023-03-23T13:31:13;17.00;99.90
14188;DHT22;7175;51.978;5.330;2023-03-23T13:33:49;16.80;99.90
14188;DHT22;7175;51.978;5.330;2023-03-23T13:36:25;16.50;99.90
14188;DHT22;7175;51.978;5.330;2023-03-23T13:38:53;16.20;99.90
14188;DHT22;7175;51.978;5.330;2023-03-23T13:41:21;16.00;99.90
14188;DHT22;7175;51.978;5.330;2023-03-23T13:43:48;15.90;99.90
14188;DHT22;7175;51.978;5.330;2023-03-23T13:46:28;15.70;99.90
14188;DHT22;7175;51.978;5.330;2023-03-23T13:49:16;15.60;99.90
14188;DHT22;7175;51.978;5.330;2023-03-23T13:52:00;15.10;99.90
14188;DHT22;7175;51.978;5.330;2023-03-23T13:54:31;14.80;99.90
14188;DHT22;7175;51.978;5.330;2023-03-23T13:57:00;14.70;99.90
14188;DHT22;7175;51.978;5.330;2023-03-23T13:59:45;14.70;99.90
14188;DHT22;7175;51.978;5.330;2023-03-23T14:02:31;14.80;99.90
14188;DHT22;7175;51.978;5.330;2023-03-23T14:05:10;14.80;99.90
14188;DHT22;7175;51.978;5.330;2023-03-23T14:07:58;15.20;99.90
14188;DHT22;7175;51.978;5.330;2023-03-23T14:10:33;15.60;99.90
14188;DHT22;7175;51.978;5.330;2023-03-23T14:13:02;15.50;99.90
14188;DHT22;7175;51.978;5.330;2023-03-23T14:15:31;15.70;99.90
14188;DHT22;7175;51.978;5.330;2023-03-23T14:18:04;15.80;99.90
14188;DHT22;7175;51.978;5.330;2023-03-23T14:20:33;16.10;99.90
14188;DHT22;7175;51.978;5.330;2023-03-23T14:23:04;16.00;99.90
14188;DHT22;7175;51.978;5.330;2023-03-23T14:25:31;15.90;99.90
14188;DHT22;7175;51.978;5.330;2023-03-23T14:27:58;16.00;99.90
14188;DHT22;7175;51.978;5.330;2023-03-23T14:30:27;15.90;99.90
14188;DHT22;7175;51.978;5.330;2023-03-23T14:33:05;16.00;99.90
14188;DHT22;7175;51.978;5.330;2023-03-23T14:35:36;15.80;99.90
14188;DHT22;7175;51.978;5.330;2023-03-23T14:38:11;16.00;99.90
14188;DHT22;7175;51.978;5.330;2023-03-23T14:40:40;16.10;99.90
14188;DHT22;7175;51.978;5.330;2023-03-23T14:43:10;15.90;99.90
14188;DHT22;7175;51.978;5.330;2023-03-23T14:45:41;15.70;99.90
14188;DHT22;7175;51.978;5.330;2023-03-23T14:48:12;15.60;99.90
14188;DHT22;7175;51.978;5.330;2023-03-23T14:50:41;15.60;99.90
14188;DHT22;7175;51.978;5.330;2023-03-23T14:53:15;15.60;99.90
14188;DHT22;7175;51.978;5.330;2023-03-23T14:55:45;15.60;99.90
14188;DHT22;7175;51.978;5.330;2023-03-23T14:58:14;15.60;99.90
14188;DHT22;7175;51.978;5.330;2023-03-23T15:00:45;15.70;99.90
14188;DHT22;7175;51.978;5.330;2023-03-23T15:03:15;15.60;99.90
14188;DHT22;7175;51.978;5.330;2023-03-23T15:05:45;15.70;99.90
14188;DHT22;7175;51.978;5.330;2023-03-23T15:08:17;15.60;99.90
14188;DHT22;7175;51.978;5.330;2023-03-23T15:10:52;15.70;99.90
14188;DHT22;7175;51.978;5.330;2023-03-23T15:13:19;15.70;99.90
14188;DHT22;7175;51.978;5.330;2023-03-23T15:15:47;15.70;99.90
14188;DHT22;7175;51.978;5.330;2023-03-23T15:18:30;15.70;99.90
14188;DHT22;7175;51.978;5.330;2023-03-23T15:20:57;15.70;99.90
14188;DHT22;7175;51.978;5.330;2023-03-23T15:23:29;15.70;99.90
14188;DHT22;7175;51.978;5.330;2023-03-23T15:26:06;15.60;99.90
14188;DHT22;7175;51.978;5.330;2023-03-23T15:28:40;15.50;99.90
14188;DHT22;7175;51.978;5.330;2023-03-23T15:31:07;15.40;99.90
14188;DHT22;7175;51.978;5.330;2023-03-23T15:33:35;15.40;99.90
14188;DHT22;7175;51.978;5.330;2023-03-23T15:36:07;15.40;99.90
14188;DHT22;7175;51.978;5.330;2023-03-23T15:38:36;15.50;99.90
14188;DHT22;7175;51.978;5.330;2023-03-23T15:41:06;15.40;99.90
14188;DHT22;7175;51.978;5.330;2023-03-23T15:43:34;15.50;99.90
14188;DHT22;7175;51.978;5.330;2023-03-23T15:46:04;15.60;99.90
14188;DHT22;7175;51.978;5.330;2023-03-23T15:48:46;15.50;99.90
14188;DHT22;7175;51.978;5.330;2023-03-23T15:51:13;15.50;99.90
14188;DHT22;7175;51.978;5.330;2023-03-23T15:53:42;15.60;99.90
14188;DHT22;7175;51.978;5.330;2023-03-23T15:56:11;15.50;99.90
14188;DHT22;7175;51.978;5.330;2023-03-23T15:58:39;15.50;99.90
14188;DHT22;7175;51.978;5.330;2023-03-23T16:01:13;15.60;99.90
14188;DHT22;7175;51.978;5.330;2023-03-23T16:03:44;15.70;99.90
14188;DHT22;7175;51.978;5.330;2023-03-23T16:06:15;15.70;99.90
14188;DHT22;7175;51.978;5.330;2023-03-23T16:08:53;15.70;99.90
14188;DHT22;7175;51.978;5.330;2023-03-23T16:11:23;15.60;99.90
14188;DHT22;7175;51.978;5.330;2023-03-23T16:13:52;15.50;99.90